createdAt,value
2022-08-10T00:01:51.338Z,3.22
2022-08-10T00:04:21.650Z,3.90
2022-08-10T00:06:50.562Z,5.65
2022-08-10T00:09:20.108Z,3.83
2022-08-10T00:11:48.362Z,3.67
2022-08-10T00:14:16.549Z,3.28
2022-08-10T00:16:44.739Z,3.58
2022-08-10T00:19:12.954Z,4.45
2022-08-10T00:21:44.934Z,4.32
2022-08-10T00:24:13.006Z,3.80
2022-08-10T00:27:51.680Z,4.78
2022-08-10T00:29:31.176Z,3.90
2022-08-10T00:31:59.693Z,3.17
2022-08-10T00:34:28.173Z,5.40
2022-08-10T00:36:56.569Z,4.05
2022-08-10T00:39:24.769Z,4.35
2022-08-10T00:42:07.209Z,5.50
2022-08-10T00:44:37.064Z,4.15
2022-08-10T00:47:05.746Z,5.57
2022-08-10T00:49:34.241Z,4.28
2022-08-10T00:52:03.599Z,3.40
2022-08-10T00:54:32.133Z,3.92
2022-08-10T00:57:16.099Z,4.18
2022-08-10T00:59:58.379Z,3.50
2022-08-10T01:02:28.761Z,4.15
2022-08-10T01:05:00.856Z,5.32
2022-08-10T01:07:55.782Z,3.50
2022-08-10T01:10:34.102Z,4.28
2022-08-10T01:13:10.876Z,4.13
2022-08-10T01:18:39.860Z,4.32
2022-08-10T01:21:54.126Z,5.00
2022-08-10T01:25:00.209Z,4.53
2022-08-10T01:27:33.647Z,4.25
2022-08-10T01:30:06.180Z,4.97
2022-08-10T01:32:47.404Z,4.40
2022-08-10T01:35:21.479Z,4.97
2022-08-10T01:37:59.351Z,4.55
2022-08-10T01:40:29.911Z,4.35
2022-08-10T01:43:08.638Z,4.07
2022-08-10T01:45:45.552Z,4.03
2022-08-10T01:48:30.714Z,5.95
2022-08-10T01:51:16.479Z,4.13
2022-08-10T01:53:52.074Z,3.83
2022-08-10T01:56:22.450Z,3.95
2022-08-10T01:58:56.596Z,4.80
2022-08-10T02:01:29.484Z,4.85
2022-08-10T02:04:05.776Z,4.20
2022-08-10T02:06:39.417Z,5.05
2022-08-10T02:09:08.988Z,4.30
2022-08-10T02:12:06.827Z,5.78
2022-08-10T02:14:33.936Z,3.88
2022-08-10T02:17:07.159Z,4.15
2022-08-10T02:19:37.443Z,4.95
2022-08-10T02:22:38.080Z,3.80
2022-08-10T02:24:56.594Z,4.82
2022-08-10T02:27:27.988Z,5.65
2022-08-10T02:29:57.471Z,4.20
2022-08-10T02:32:35.977Z,4.28
2022-08-10T02:35:13.942Z,3.70
2022-08-10T02:37:53.883Z,4.03
2022-08-10T02:45:12.665Z,4.32
2022-08-10T02:45:22.693Z,4.65
2022-08-10T02:46:14.135Z,4.60
2022-08-10T02:48:51.361Z,4.25
2022-08-10T02:52:06.747Z,4.93
2022-08-10T02:54:19.967Z,6.38
2022-08-10T02:56:54.901Z,4.95
2022-08-10T02:59:40.050Z,5.32
2022-08-10T03:02:12.994Z,4.93
2022-08-10T03:04:56.068Z,4.85
2022-08-10T03:07:44.609Z,4.65
2022-08-10T03:10:18.550Z,4.60
2022-08-10T03:12:50.939Z,5.50
2022-08-10T03:15:21.926Z,5.72
2022-08-10T03:17:58.207Z,4.90
2022-08-10T03:20:38.311Z,5.60
2022-08-10T03:23:12.418Z,4.57
2022-08-10T03:25:40.970Z,4.40
2022-08-10T03:28:22.251Z,4.20
2022-08-10T03:30:51.089Z,4.05
2022-08-10T03:33:21.519Z,3.97
2022-08-10T03:36:42.644Z,4.72
2022-08-10T03:38:40.897Z,4.30
2022-08-10T03:41:15.898Z,5.57
2022-08-10T03:43:47.824Z,5.22
2022-08-10T03:46:20.134Z,5.63
2022-08-10T03:48:52.365Z,3.80
2022-08-10T03:51:23.966Z,3.55
2022-08-10T03:54:06.192Z,3.65
2022-08-10T03:56:37.583Z,3.95
2022-08-10T03:59:07.213Z,4.47
2022-08-10T04:02:46.314Z,4.10
2022-08-10T04:04:25.404Z,3.78
2022-08-10T04:06:57.424Z,4.10
2022-08-10T04:09:43.359Z,3.88
2022-08-10T04:12:16.141Z,3.58
2022-08-10T04:14:49.960Z,4.20
2022-08-10T04:17:57.213Z,3.42
2022-08-10T04:20:18.764Z,4.07
2022-08-10T04:22:52.052Z,4.30
2022-08-10T04:25:22.163Z,4.57
2022-08-10T04:27:51.868Z,3.78
2022-08-10T04:30:20.313Z,4.03
2022-08-10T04:32:55.552Z,3.88
2022-08-10T04:35:27.234Z,5.20
2022-08-10T04:37:59.003Z,3.80
2022-08-10T04:40:30.299Z,4.22
2022-08-10T04:43:04.444Z,3.72
2022-08-10T04:45:49.471Z,3.45
2022-08-10T04:48:43.065Z,3.65
2022-08-10T04:51:16.046Z,3.50
2022-08-10T04:54:04.664Z,3.35
2022-08-10T04:56:35.427Z,4.88
2022-08-10T04:59:05.161Z,4.38
2022-08-10T05:02:22.776Z,2.97
2022-08-10T05:04:35.131Z,2.92
2022-08-10T05:07:06.237Z,3.85
2022-08-10T05:10:02.996Z,3.35
2022-08-10T05:12:24.436Z,3.53
2022-08-10T05:14:54.575Z,3.58
2022-08-10T05:17:23.625Z,3.85
2022-08-10T05:20:01.504Z,3.80
2022-08-10T05:22:33.590Z,2.85
2022-08-10T05:25:03.105Z,3.10
2022-08-10T05:27:31.175Z,3.05
2022-08-10T05:30:02.485Z,4.03
2022-08-10T05:32:31.542Z,3.35
2022-08-10T05:34:59.790Z,3.25
2022-08-10T05:38:11.543Z,3.13
2022-08-10T05:40:20.047Z,3.95
2022-08-10T05:42:48.132Z,4.22
2022-08-10T05:45:21.947Z,2.67
2022-08-10T05:48:57.115Z,3.58
2022-08-10T05:50:38.394Z,3.88
2022-08-10T05:53:59.923Z,4.95
2022-08-10T05:55:56.362Z,4.00
2022-08-10T05:58:24.791Z,5.10
2022-08-10T06:00:55.733Z,6.18
2022-08-10T06:03:28.144Z,3.05
2022-08-10T06:05:57.958Z,3.63
2022-08-10T06:08:30.422Z,3.13
2022-08-10T06:12:27.615Z,2.78
2022-08-10T06:14:12.861Z,3.92
2022-08-10T06:16:45.164Z,2.70
2022-08-10T06:19:14.726Z,3.97
2022-08-10T06:22:01.035Z,3.88
2022-08-10T06:24:31.244Z,2.75
2022-08-10T06:27:00.923Z,4.00
2022-08-10T06:29:33.147Z,2.45
2022-08-10T06:32:02.225Z,2.50
2022-08-10T06:34:33.758Z,2.95
2022-08-10T06:37:04.663Z,2.63
2022-08-10T06:39:35.244Z,3.03
2022-08-10T06:42:15.160Z,4.57
2022-08-10T06:44:53.616Z,3.10
2022-08-10T06:47:26.412Z,2.70
2022-08-10T06:50:01.623Z,4.35
2022-08-10T06:52:34.999Z,2.35
2022-08-10T06:55:05.447Z,3.22
2022-08-10T06:57:39.993Z,3.22
2022-08-10T07:00:09.916Z,2.70
2022-08-10T07:02:44.146Z,3.22
2022-08-10T07:05:18.263Z,3.38
2022-08-10T07:07:48.766Z,2.85
2022-08-10T07:10:20.646Z,2.70
2022-08-10T07:12:56.232Z,5.03
2022-08-10T07:15:57.226Z,2.78
2022-08-10T07:18:15.128Z,2.33
2022-08-10T07:20:46.556Z,2.85
2022-08-10T07:23:57.394Z,3.08
2022-08-10T07:26:04.867Z,2.20
2022-08-10T07:28:35.792Z,6.43
2022-08-10T07:31:04.799Z,2.97
2022-08-10T07:33:55.443Z,3.42
2022-08-10T07:36:24.786Z,2.70
2022-08-10T07:38:56.161Z,4.43
2022-08-10T07:41:27.088Z,3.15
2022-08-10T07:43:57.961Z,3.63
2022-08-10T07:46:29.357Z,2.78
2022-08-10T07:49:17.012Z,1.98
2022-08-10T07:51:54.507Z,2.08
2022-08-10T07:54:26.268Z,3.55
2022-08-10T07:57:00.603Z,2.72
2022-08-10T07:59:37.401Z,1.85
2022-08-10T08:02:09.819Z,2.60
2022-08-10T08:04:38.592Z,2.58
2022-08-10T08:07:08.722Z,2.17
2022-08-10T08:09:38.792Z,2.45
2022-08-10T08:12:28.127Z,2.42
2022-08-10T08:14:59.737Z,2.60
2022-08-10T08:17:35.570Z,2.53
2022-08-10T08:20:07.379Z,1.98
2022-08-10T08:24:06.421Z,2.63
2022-08-10T08:25:27.039Z,3.42
2022-08-10T08:27:58.224Z,2.25
2022-08-10T08:30:28.378Z,2.95
2022-08-10T08:32:57.528Z,1.92
2022-08-10T08:35:27.124Z,3.78
2022-08-10T08:38:31.708Z,2.22
2022-08-10T08:40:51.543Z,1.73
2022-08-10T08:43:47.368Z,2.75
2022-08-10T08:46:43.493Z,3.47
2022-08-10T08:50:07.787Z,2.05
2022-08-10T08:52:33.203Z,3.90
2022-08-10T08:56:04.581Z,3.47
2022-08-10T08:58:17.645Z,2.35
2022-08-10T09:00:53.046Z,2.78
2022-08-10T09:03:42.082Z,2.53
2022-08-10T09:06:23.196Z,1.83
2022-08-10T09:09:10.856Z,4.80
2022-08-10T09:11:51.823Z,1.58
2022-08-10T09:14:26.770Z,2.25
2022-08-10T09:17:00.810Z,2.78
2022-08-10T09:19:39.520Z,3.20
2022-08-10T09:22:19.343Z,2.45
2022-08-10T09:24:55.282Z,2.70
2022-08-10T09:27:27.283Z,2.33
2022-08-10T09:29:57.389Z,2.17
2022-08-10T09:36:15.516Z,1.80
2022-08-10T09:36:22.449Z,1.73
2022-08-10T09:38:43.749Z,1.52
2022-08-10T09:41:23.503Z,2.05
2022-08-10T09:44:01.910Z,1.38
2022-08-10T09:46:43.445Z,2.90
2022-08-10T09:49:25.084Z,1.50
2022-08-10T09:52:12.387Z,1.63
2022-08-10T09:55:01.233Z,2.28
2022-08-10T09:57:44.960Z,2.40
2022-08-10T10:00:27.606Z,1.80
2022-08-10T10:03:17.768Z,2.05
2022-08-10T10:05:54.181Z,1.75
2022-08-10T10:08:33.441Z,3.63
2022-08-10T10:11:10.643Z,3.20
2022-08-10T10:14:02.005Z,1.98
2022-08-10T10:16:58.153Z,1.48
2022-08-10T10:19:40.479Z,3.58
2022-08-10T10:22:26.149Z,2.42
2022-08-10T10:25:19.645Z,2.17
2022-08-10T10:27:59.176Z,1.92
2022-08-10T10:30:32.338Z,3.53
2022-08-10T10:33:13.265Z,2.95
2022-08-10T10:35:47.952Z,3.42
2022-08-10T10:38:18.367Z,1.98
2022-08-10T10:40:56.080Z,1.23
2022-08-10T10:43:41.660Z,1.67
2022-08-10T10:46:23.170Z,1.70
2022-08-10T10:49:01.652Z,3.38
2022-08-10T10:51:35.104Z,1.45
2022-08-10T10:54:13.091Z,2.25
2022-08-10T10:56:56.580Z,2.92
2022-08-10T10:59:54.936Z,3.10
2022-08-10T11:02:33.084Z,1.88
2022-08-10T11:05:14.864Z,1.60
2022-08-10T11:07:53.399Z,1.95
2022-08-10T11:10:32.897Z,2.05
2022-08-10T11:14:25.004Z,2.15
2022-08-10T11:16:09.829Z,1.85
2022-08-10T11:18:49.667Z,1.90
2022-08-10T11:21:25.805Z,1.20
2022-08-10T11:24:46.922Z,1.50
2022-08-10T11:26:58.857Z,1.50
2022-08-10T11:29:34.704Z,1.80
2022-08-10T11:32:07.948Z,2.78
2022-08-10T11:35:10.989Z,1.25
2022-08-10T11:38:30.962Z,3.35
2022-08-10T11:40:43.369Z,1.70
2022-08-10T11:43:19.152Z,1.63
2022-08-10T11:45:55.848Z,1.70
2022-08-10T11:48:53.988Z,1.53
2022-08-10T11:51:27.666Z,1.88
2022-08-10T11:54:05.116Z,2.67
2022-08-10T11:56:40.523Z,1.88
2022-08-10T11:59:27.261Z,2.88
2022-08-10T12:01:58.077Z,2.35
2022-08-10T12:04:27.014Z,2.65
2022-08-10T12:06:56.586Z,1.95
2022-08-10T12:10:05.376Z,1.88
2022-08-10T12:12:16.529Z,2.53
2022-08-10T12:14:51.583Z,1.98
2022-08-10T12:17:26.276Z,1.48
2022-08-10T12:20:02.295Z,2.53
2022-08-10T12:22:37.067Z,1.90
2022-08-10T12:25:09.567Z,2.72
2022-08-10T12:27:41.702Z,2.35
2022-08-10T12:30:12.266Z,2.38
2022-08-10T12:32:46.634Z,2.92
2022-08-10T12:35:26.005Z,2.00
2022-08-10T12:38:06.458Z,1.13
2022-08-10T12:40:41.047Z,3.33
2022-08-10T12:44:06.332Z,2.23
2022-08-10T12:46:10.804Z,1.95
2022-08-10T12:48:51.330Z,1.20
2022-08-10T12:51:23.181Z,1.83
2022-08-10T12:53:58.006Z,1.38
2022-08-10T12:56:28.719Z,2.38
2022-08-10T12:59:01.417Z,2.67
2022-08-10T13:02:10.683Z,1.40
2022-08-10T13:04:29.834Z,1.25
2022-08-10T13:07:01.620Z,1.85
2022-08-10T13:09:30.763Z,1.52
2022-08-10T13:12:35.355Z,0.98
2022-08-10T13:14:56.070Z,2.40
2022-08-10T13:17:38.576Z,2.65
2022-08-10T13:20:19.440Z,1.83
2022-08-10T13:22:50.231Z,3.03
2022-08-10T13:25:22.655Z,3.50
2022-08-10T13:28:02.873Z,2.38
2022-08-10T13:30:41.345Z,2.17
2022-08-10T13:33:11.971Z,2.63
2022-08-10T13:35:45.163Z,2.00
2022-08-10T13:38:16.227Z,1.80
2022-08-10T13:40:49.889Z,2.53
2022-08-10T13:43:20.058Z,1.75
2022-08-10T13:45:50.165Z,1.55
2022-08-10T13:48:21.640Z,1.75
2022-08-10T13:50:57.438Z,2.67
2022-08-10T13:53:31.195Z,1.73
2022-08-10T13:56:00.779Z,1.83
2022-08-10T13:58:31.691Z,1.73
2022-08-10T14:01:01.355Z,0.98
2022-08-10T14:03:35.409Z,1.77
2022-08-10T14:06:06.847Z,0.82
2022-08-10T14:08:36.114Z,1.63
2022-08-10T14:11:11.696Z,1.45
2022-08-10T14:13:47.400Z,1.65
2022-08-10T14:16:16.633Z,1.85
2022-08-10T14:18:46.017Z,1.85
2022-08-10T14:21:16.369Z,0.82
2022-08-10T14:23:52.122Z,1.25
2022-08-10T14:26:25.186Z,1.65
2022-08-10T14:28:56.196Z,2.22
2022-08-10T14:31:30.105Z,1.77
2022-08-10T14:34:00.514Z,2.33
2022-08-10T14:36:39.264Z,1.73
2022-08-10T14:39:09.340Z,2.85
2022-08-10T14:42:01.330Z,2.55
2022-08-10T14:44:31.874Z,2.17
2022-08-10T14:47:08.439Z,1.88
2022-08-10T14:49:57.210Z,1.38
2022-08-10T14:52:30.617Z,2.17
2022-08-10T14:55:04.771Z,2.78
2022-08-10T14:58:19.945Z,1.48
2022-08-10T15:00:33.049Z,1.70
2022-08-10T15:03:10.821Z,2.40
2022-08-10T15:05:53.506Z,2.38
2022-08-10T15:08:36.868Z,2.35
2022-08-10T15:11:07.327Z,1.75
2022-08-10T15:13:36.637Z,4.32
2022-08-10T15:16:13.088Z,1.40
2022-08-10T15:18:58.197Z,1.50
2022-08-10T15:21:35.609Z,2.03
2022-08-10T15:24:37.986Z,1.88
2022-08-10T15:27:10.074Z,1.65
2022-08-10T15:29:56.936Z,2.47
2022-08-10T15:32:52.103Z,1.27
2022-08-10T15:35:39.664Z,1.42
2022-08-10T15:38:09.456Z,1.15
2022-08-10T15:40:51.205Z,1.58
2022-08-10T15:43:25.886Z,3.15
2022-08-10T15:46:04.105Z,2.03
2022-08-10T15:48:40.466Z,1.70
2022-08-10T15:51:18.069Z,1.27
2022-08-10T15:53:51.618Z,1.23
2022-08-10T15:56:28.703Z,1.60
2022-08-10T15:59:08.282Z,1.98
2022-08-10T16:02:14.482Z,1.38
2022-08-10T16:04:34.045Z,2.42
2022-08-10T16:07:06.164Z,1.77
2022-08-10T16:10:24.031Z,1.88
2022-08-10T16:12:35.529Z,1.98
2022-08-10T16:15:10.666Z,1.30
2022-08-10T16:17:54.699Z,1.83
2022-08-10T16:20:28.508Z,1.83
2022-08-10T16:23:03.175Z,2.17
2022-08-10T16:25:47.888Z,1.95
2022-08-10T16:28:24.210Z,3.20
2022-08-10T16:30:55.884Z,2.03
2022-08-10T16:33:52.955Z,2.22
2022-08-10T16:36:19.349Z,2.47
2022-08-10T16:38:50.333Z,2.25
2022-08-10T16:42:04.505Z,2.13
2022-08-10T16:44:12.181Z,2.08
2022-08-10T16:46:44.795Z,2.30
2022-08-10T16:49:14.125Z,2.92
2022-08-10T16:51:47.607Z,2.65
2022-08-10T16:54:18.192Z,2.13
2022-08-10T16:56:49.641Z,1.90
2022-08-10T16:59:24.403Z,1.45
2022-08-10T17:01:54.450Z,1.52
2022-08-10T17:04:24.408Z,2.42
2022-08-10T17:06:56.511Z,1.73
2022-08-10T17:09:27.714Z,1.55
2022-08-10T17:11:59.207Z,1.73
2022-08-10T17:14:30.189Z,1.67
2022-08-10T17:17:01.384Z,1.45
2022-08-10T17:19:35.962Z,1.88
2022-08-10T17:22:11.836Z,2.70
2022-08-10T17:24:49.363Z,3.28
2022-08-10T17:28:05.262Z,1.83
2022-08-10T17:30:16.127Z,1.83
2022-08-10T17:33:06.415Z,2.03
2022-08-10T17:35:38.021Z,2.67
2022-08-10T17:38:10.441Z,2.17
2022-08-10T17:40:47.446Z,2.00
2022-08-10T17:43:58.223Z,2.45
2022-08-10T17:46:12.927Z,2.00
2022-08-10T17:48:43.265Z,4.05
2022-08-10T17:51:15.452Z,1.73
2022-08-10T17:53:45.854Z,2.03
2022-08-10T17:56:15.233Z,2.78
2022-08-10T17:58:50.293Z,2.38
2022-08-10T18:01:40.948Z,1.77
2022-08-10T18:04:16.133Z,2.70
2022-08-10T18:06:44.850Z,2.65
2022-08-10T18:09:26.024Z,3.25
2022-08-10T18:12:00.264Z,2.45
2022-08-10T18:14:30.988Z,4.15
2022-08-10T18:17:07.910Z,2.53
2022-08-10T18:19:36.820Z,2.92
2022-08-10T18:22:05.432Z,2.40
2022-08-10T18:24:37.729Z,2.65
2022-08-10T18:27:07.822Z,3.65
2022-08-10T18:29:39.892Z,2.67
2022-08-10T18:32:11.181Z,2.53
2022-08-10T18:34:41.854Z,2.35
2022-08-10T18:37:19.985Z,2.35
2022-08-10T18:39:51.382Z,1.67
2022-08-10T18:42:23.011Z,2.38
2022-08-10T18:45:02.148Z,2.83
2022-08-10T18:47:36.369Z,3.25
2022-08-10T18:50:10.031Z,2.00
2022-08-10T18:52:41.993Z,3.67
2022-08-10T18:55:22.993Z,3.72
2022-08-10T18:58:31.599Z,3.03
2022-08-10T19:01:34.215Z,2.58
2022-08-10T19:04:19.212Z,2.40
2022-08-10T19:07:05.953Z,2.33
2022-08-10T19:09:47.718Z,2.70
2022-08-10T19:12:33.298Z,2.65
2022-08-10T19:15:10.055Z,2.75
2022-08-10T19:18:03.485Z,3.28
2022-08-10T19:20:40.411Z,3.00
2022-08-10T19:23:18.804Z,2.75
2022-08-10T19:26:42.996Z,2.20
2022-08-10T19:28:55.210Z,2.92
2022-08-10T19:31:45.039Z,3.08
2022-08-10T19:34:24.383Z,4.82
2022-08-10T19:37:05.091Z,2.53
2022-08-10T19:39:51.099Z,3.20
2022-08-10T19:42:30.979Z,2.72
2022-08-10T19:45:07.611Z,4.07
2022-08-10T19:50:13.591Z,5.18
2022-08-10T19:52:50.447Z,4.45
2022-08-10T19:55:26.955Z,2.30
2022-08-10T19:57:59.762Z,3.80
2022-08-10T20:00:38.375Z,3.30
2022-08-10T20:03:17.922Z,3.00
2022-08-10T20:06:19.424Z,2.35
2022-08-10T20:08:48.437Z,5.68
2022-08-10T20:11:45.987Z,8.68
2022-08-10T20:14:21.602Z,2.70
2022-08-10T20:16:53.551Z,2.63
2022-08-10T20:19:53.596Z,3.22
2022-08-10T20:22:28.693Z,2.85
2022-08-10T20:25:07.357Z,4.22
2022-08-10T20:28:00.709Z,3.22
2022-08-10T20:30:30.428Z,2.60
2022-08-10T20:33:05.247Z,2.63
2022-08-10T20:35:47.351Z,3.17
2022-08-10T20:38:22.108Z,2.75
2022-08-10T20:41:04.015Z,3.15
2022-08-10T20:43:42.008Z,3.75
2022-08-10T20:46:22.206Z,3.33
2022-08-10T20:48:57.110Z,3.22
2022-08-10T20:51:59.118Z,4.60
2022-08-10T20:54:22.775Z,5.32
2022-08-10T20:57:54.653Z,2.17
2022-08-10T21:00:10.945Z,3.85
2022-08-10T21:03:21.048Z,2.47
2022-08-10T21:06:00.798Z,4.63
2022-08-10T21:08:39.200Z,4.88
2022-08-10T21:11:15.271Z,3.53
2022-08-10T21:17:00.978Z,2.22
2022-08-10T21:19:53.969Z,4.05
2022-08-10T21:22:29.308Z,4.95
2022-08-10T21:25:03.078Z,3.75
2022-08-10T21:28:08.220Z,3.25
2022-08-10T21:30:53.125Z,3.58
2022-08-10T21:33:31.816Z,3.42
2022-08-10T21:36:09.612Z,5.97
2022-08-10T21:38:48.435Z,5.65
2022-08-10T21:41:57.902Z,4.80
2022-08-10T21:45:04.081Z,3.88
2022-08-10T21:48:17.925Z,3.45
2022-08-10T21:51:16.493Z,3.03
2022-08-10T21:54:18.184Z,2.20
2022-08-10T21:57:12.189Z,3.38
2022-08-10T22:00:05.303Z,3.28
2022-08-10T22:02:59.871Z,2.38
2022-08-10T22:05:49.252Z,3.42
2022-08-10T22:08:40.859Z,2.78
2022-08-10T22:11:37.377Z,3.30
2022-08-10T22:14:26.361Z,2.78
2022-08-10T22:17:59.524Z,2.75
2022-08-10T22:20:32.745Z,4.15
2022-08-10T22:23:36.405Z,2.80
2022-08-10T22:26:34.017Z,2.35
2022-08-10T22:29:42.271Z,3.88
2022-08-10T22:32:41.235Z,3.38
2022-08-10T22:35:49.542Z,4.20
2022-08-10T22:38:44.244Z,4.60
2022-08-10T22:41:40.614Z,2.85
2022-08-10T22:44:29.729Z,3.58
2022-08-10T22:47:16.671Z,3.65
2022-08-10T22:49:43.911Z,5.00
2022-08-10T22:52:17.899Z,3.75
2022-08-10T22:55:08.316Z,3.17
2022-08-10T22:57:53.910Z,3.47
2022-08-10T23:00:31.320Z,2.80
2022-08-10T23:03:07.685Z,2.63
2022-08-10T23:08:19.624Z,3.13
2022-08-10T23:11:05.122Z,3.58
2022-08-10T23:13:36.894Z,3.35
2022-08-10T23:16:26.899Z,3.85
2022-08-10T23:19:09.485Z,3.67
2022-08-10T23:22:03.343Z,3.65
2022-08-10T23:24:37.154Z,3.10
2022-08-10T23:27:12.746Z,4.65
2022-08-10T23:30:03.786Z,2.80
2022-08-10T23:32:41.715Z,2.78
2022-08-10T23:36:31.444Z,3.13
2022-08-10T23:38:04.413Z,4.32
2022-08-10T23:40:34.542Z,3.60
2022-08-10T23:43:04.376Z,4.18
2022-08-10T23:45:53.878Z,3.10
2022-08-10T23:48:24.323Z,3.55
2022-08-10T23:50:59.496Z,4.15
2022-08-10T23:53:30.836Z,3.30
2022-08-10T23:56:02.900Z,4.13
2022-08-10T23:58:42.154Z,4.03
